Alexandria, Minnesota
Current Conditions -  °F | °C
As of 4:53 AM on Wednesday 22 Oct 2014 (Local Time) from KAXN Reporting Station
Broken Clouds Broken Clouds  
Wind Chill: 40°   Ceiling: 6000
Heat Index: 47°   Visibility: 10mi
Dew Point: 40°   Wind: 17mph
Humidity: 77%   Direction: 160°SSE
Pressure: 30.06"   Gusts: NA
Location:  45.89°N, 95.37°W
Report Text: KAXN 220953Z AUTO 16015KT 10SM BKN060 08/04 A3006 RMK AO2 SLP184 T00830044
Loading
Personal Weather Stations






























Interactive Weather Map New forecast layout! Learn more

10-Day Weather Forecast

Advertisements
Track Severe Weather on mobile